Time;durP1;ratioP1;P1;durP2;ratioP2;P2;SDS_P1;SDS_P2;PMS_P1;PMS_P2;Temp;Humidity;BMP_temperature;BMP_pressure;BME280_temperature;BME280_humidity;BME280_pressure;Samples;Min_cycle;Max_cycle;Signal;HPM_P1;HPM_P2
2022/06/06 00:01:13;;;;;;;1.90;1.50;;;15.30;99.90;;;;;;5045474;28;20070;-80
2022/06/06 00:03:40;;;;;;;3.80;1.70;;;15.20;99.90;;;;;;5041018;28;20095;-79
2022/06/06 00:06:11;;;;;;;2.55;1.80;;;15.20;99.90;;;;;;5041158;28;20026;-79
2022/06/06 00:08:40;;;;;;;1.30;1.17;;;15.30;99.90;;;;;;5040669;28;20022;-80
2022/06/06 00:11:09;;;;;;;2.47;1.38;;;15.30;99.90;;;;;;5039040;28;20474;-81
2022/06/06 00:13:40;;;;;;;4.18;1.63;;;15.30;99.90;;;;;;5038772;28;20025;-79
2022/06/06 00:16:06;;;;;;;1.73;1.42;;;15.20;99.90;;;;;;5038512;28;20079;-78
2022/06/06 00:18:33;;;;;;;1.77;1.30;;;15.20;99.90;;;;;;5041806;28;20053;-79
2022/06/06 00:20:59;;;;;;;1.80;1.70;;;15.30;99.90;;;;;;5043879;28;20125;-80
2022/06/06 00:23:25;;;;;;;2.00;1.60;;;15.30;99.90;;;;;;5041142;28;20109;-77
2022/06/06 00:25:53;;;;;;;1.38;1.25;;;15.20;99.90;;;;;;5046642;28;20030;-80
2022/06/06 00:28:18;;;;;;;2.22;1.63;;;15.20;99.90;;;;;;5056275;28;20078;-79
2022/06/06 00:30:44;;;;;;;1.83;1.73;;;15.20;99.90;;;;;;5053921;28;20045;-78
2022/06/06 00:36:00;;;;;;;1.83;1.40;;;15.20;99.90;;;;;;5017850;28;20033;-79
2022/06/06 00:38:27;;;;;;;5.90;2.00;;;15.20;99.90;;;;;;5021272;28;20550;-79
2022/06/06 00:40:53;;;;;;;2.28;2.00;;;15.20;99.90;;;;;;5018967;28;20052;-79
2022/06/06 00:43:19;;;;;;;2.13;1.60;;;15.20;99.90;;;;;;5018823;28;20041;-80
2022/06/06 00:45:49;;;;;;;2.33;1.80;;;15.30;99.90;;;;;;5018138;28;20022;-80
2022/06/06 00:48:24;;;;;;;4.18;1.80;;;15.30;99.90;;;;;;5029887;28;20049;-81
2022/06/06 00:51:00;;;;;;;1.85;1.75;;;15.20;99.90;;;;;;5036979;28;20041;-81
2022/06/06 00:53:50;;;;;;;4.47;2.28;;;15.20;99.90;;;;;;5037299;28;20037;-80
2022/06/06 00:56:20;;;;;;;3.20;1.95;;;15.20;99.90;;;;;;5005719;28;20041;-78
2022/06/06 00:58:49;;;;;;;4.88;1.92;;;15.20;99.90;;;;;;5039526;28;20033;-78
2022/06/06 01:01:15;;;;;;;1.90;1.80;;;15.20;99.90;;;;;;5046266;28;20032;-79
2022/06/06 01:03:42;;;;;;;2.42;1.60;;;15.10;99.90;;;;;;5045506;28;20030;-80
2022/06/06 01:06:11;;;;;;;2.90;1.88;;;15.20;99.90;;;;;;5043139;28;20068;-81
2022/06/06 01:08:38;;;;;;;2.03;1.65;;;15.20;99.90;;;;;;5042831;28;20026;-78
2022/06/06 01:11:05;;;;;;;1.88;1.77;;;15.20;99.90;;;;;;5013100;28;20048;-80
2022/06/06 01:13:32;;;;;;;2.28;1.80;;;15.10;99.90;;;;;;5041835;28;20081;-79
2022/06/06 01:16:04;;;;;;;2.53;1.50;;;15.10;99.90;;;;;;5044262;28;20057;-80
2022/06/06 01:18:46;;;;;;;1.52;1.42;;;15.10;99.90;;;;;;5043045;28;20045;-79
2022/06/06 01:21:43;;;;;;;1.50;1.40;;;15.10;99.90;;;;;;5025267;28;20044;-80
2022/06/06 01:24:17;;;;;;;1.95;1.73;;;15.00;99.90;;;;;;5041449;28;20038;-80
2022/06/06 01:27:25;;;;;;;1.45;1.20;;;15.10;99.90;;;;;;5040495;28;20454;-80
2022/06/06 01:29:57;;;;;;;1.45;1.35;;;15.00;99.90;;;;;;5022504;28;20104;-80
2022/06/06 01:32:24;;;;;;;2.05;1.65;;;15.00;99.90;;;;;;5046348;28;20021;-79
2022/06/06 01:34:53;;;;;;;3.35;1.95;;;15.00;99.90;;;;;;5027373;28;20034;-78
2022/06/06 01:37:35;;;;;;;1.60;1.50;;;15.00;99.90;;;;;;5037064;28;20030;-80
2022/06/06 01:40:05;;;;;;;3.03;1.80;;;15.00;99.90;;;;;;5041423;28;20422;-79
2022/06/06 01:42:49;;;;;;;1.70;1.60;;;15.00;99.90;;;;;;5039646;28;20276;-79
2022/06/06 01:45:33;;;;;;;1.52;1.42;;;14.90;99.90;;;;;;5022443;28;20013;-79
2022/06/06 01:48:07;;;;;;;1.75;1.63;;;14.90;99.90;;;;;;5041841;28;20010;-80
2022/06/06 01:50:37;;;;;;;1.70;1.60;;;14.90;99.90;;;;;;5040627;28;20021;-79
2022/06/06 01:53:07;;;;;;;1.63;1.52;;;14.90;99.90;;;;;;5040256;28;20021;-79
2022/06/06 01:55:38;;;;;;;1.25;1.25;;;14.90;99.90;;;;;;5040345;28;20030;-79
2022/06/06 01:58:08;;;;;;;1.90;1.80;;;14.80;99.90;;;;;;5024614;28;20486;-79
2022/06/06 02:00:37;;;;;;;1.55;1.45;;;14.80;99.90;;;;;;5049604;28;20021;-81
2022/06/06 02:03:06;;;;;;;2.08;1.95;;;14.80;99.90;;;;;;5043703;28;20512;-81
2022/06/06 02:05:32;;;;;;;1.58;1.48;;;14.80;99.90;;;;;;5039223;28;20017;-81
2022/06/06 02:07:58;;;;;;;2.40;1.80;;;14.70;99.90;;;;;;5039214;28;20033;-79
2022/06/06 02:10:24;;;;;;;1.95;1.70;;;14.80;99.90;;;;;;5038414;28;20036;-78
2022/06/06 02:12:51;;;;;;;1.55;1.42;;;14.70;99.90;;;;;;5041503;28;20033;-80
2022/06/06 02:15:25;;;;;;;1.55;1.45;;;14.70;99.90;;;;;;5038662;28;20025;-80
2022/06/06 02:17:52;;;;;;;1.48;1.38;;;14.70;99.90;;;;;;5037798;28;20084;-78
2022/06/06 02:20:20;;;;;;;1.48;1.38;;;14.60;99.90;;;;;;5038312;28;20026;-81
2022/06/06 02:22:46;;;;;;;1.80;1.65;;;14.60;99.90;;;;;;5038225;28;20072;-80
2022/06/06 02:25:13;;;;;;;3.47;1.50;;;14.60;99.90;;;;;;5040386;28;20323;-80
2022/06/06 02:27:40;;;;;;;1.83;1.73;;;14.60;99.90;;;;;;5040642;28;20045;-80
2022/06/06 02:30:11;;;;;;;1.75;1.65;;;14.50;99.90;;;;;;5046291;28;20020;-80
2022/06/06 02:32:37;;;;;;;1.65;1.55;;;14.50;99.90;;;;;;5035355;28;20026;-78
2022/06/06 02:35:03;;;;;;;1.80;1.70;;;14.40;99.90;;;;;;5032911;28;20061;-79
2022/06/06 02:37:29;;;;;;;1.58;1.48;;;14.40;99.90;;;;;;5030910;28;20056;-79
2022/06/06 02:39:55;;;;;;;1.98;1.88;;;14.40;99.90;;;;;;5021662;28;20123;-80
2022/06/06 02:42:21;;;;;;;2.15;2.00;;;14.40;99.90;;;;;;5019571;28;20113;-80
2022/06/06 02:44:48;;;;;;;1.77;1.67;;;14.30;99.90;;;;;;5019254;28;20049;-80
2022/06/06 02:47:14;;;;;;;1.88;1.77;;;14.30;99.90;;;;;;5021412;28;20037;-80
2022/06/06 02:49:39;;;;;;;2.10;1.75;;;14.30;99.90;;;;;;5001361;28;20096;-78
2022/06/06 02:52:06;;;;;;;1.95;1.85;;;14.30;99.90;;;;;;5021452;28;20025;-80
2022/06/06 02:54:31;;;;;;;2.20;1.95;;;14.20;99.90;;;;;;5038001;28;20394;-79
2022/06/06 02:56:59;;;;;;;2.38;1.88;;;14.20;99.90;;;;;;5038985;28;20041;-80
2022/06/06 02:59:28;;;;;;;2.13;1.80;;;14.20;99.90;;;;;;5042152;28;20029;-78
2022/06/06 03:01:54;;;;;;;2.05;1.95;;;14.10;99.90;;;;;;5057375;28;20048;-79
2022/06/06 03:04:19;;;;;;;2.00;1.90;;;14.10;99.90;;;;;;5045876;28;20033;-80
2022/06/06 03:07:04;;;;;;;2.17;1.98;;;14.10;99.90;;;;;;5045277;28;20368;-80
2022/06/06 03:09:44;;;;;;;1.63;1.52;;;14.10;99.90;;;;;;5039182;28;20025;-80
2022/06/06 03:12:20;;;;;;;1.52;1.48;;;14.10;99.90;;;;;;5039103;28;20104;-80
2022/06/06 03:15:20;;;;;;;2.13;2.00;;;14.10;99.90;;;;;;5021620;28;20506;-80
2022/06/06 03:20:54;;;;;;;1.70;1.60;;;14.00;99.90;;;;;;5033284;28;20025;-77
2022/06/06 03:23:43;;;;;;;1.55;1.45;;;14.00;99.90;;;;;;5032060;28;20072;-79
2022/06/06 03:26:30;;;;;;;2.20;2.00;;;14.00;99.90;;;;;;5017782;28;20034;-78
2022/06/06 03:29:07;;;;;;;2.35;1.85;;;14.00;99.90;;;;;;5036917;28;20029;-78
2022/06/06 03:31:54;;;;;;;1.70;1.60;;;14.00;99.90;;;;;;5032404;28;20031;-79
2022/06/06 03:34:30;;;;;;;1.42;1.35;;;14.10;99.90;;;;;;5027480;28;20029;-81
2022/06/06 03:37:25;;;;;;;1.65;1.55;;;14.10;99.90;;;;;;5017778;28;20033;-80
2022/06/06 03:40:34;;;;;;;2.08;1.73;;;14.10;99.90;;;;;;5030960;28;20056;-81
2022/06/06 03:43:11;;;;;;;1.85;1.63;;;14.10;99.90;;;;;;4936458;28;20138;-79
2022/06/06 03:45:38;;;;;;;1.70;1.58;;;14.20;99.90;;;;;;5020021;28;20038;-79
2022/06/06 03:48:04;;;;;;;1.48;1.38;;;14.20;99.90;;;;;;5037706;28;20080;-81
2022/06/06 03:50:39;;;;;;;1.70;1.60;;;14.40;99.90;;;;;;5038213;28;20048;-80
2022/06/06 03:53:08;;;;;;;1.50;1.40;;;14.60;99.90;;;;;;5020433;28;20030;-81
2022/06/06 03:55:44;;;;;;;1.70;1.60;;;14.80;99.90;;;;;;5020334;28;20086;-79
2022/06/06 03:58:14;;;;;;;1.52;1.42;;;14.90;99.90;;;;;;5022898;28;20377;-79
2022/06/06 04:00:41;;;;;;;1.25;1.05;;;15.00;99.90;;;;;;5039206;28;20036;-80
2022/06/06 04:03:10;;;;;;;1.40;1.30;;;15.10;99.90;;;;;;5038932;28;20073;-80
2022/06/06 04:05:36;;;;;;;1.17;1.08;;;15.20;99.90;;;;;;5038023;28;20030;-80
2022/06/06 04:08:03;;;;;;;1.67;1.55;;;15.30;99.90;;;;;;5021379;28;20088;-79
2022/06/06 04:10:53;;;;;;;1.08;1.08;;;15.40;99.90;;;;;;5023951;28;20029;-78
2022/06/06 04:13:37;;;;;;;1.63;1.52;;;15.40;99.90;;;;;;5048558;28;20113;-79
2022/06/06 04:16:24;;;;;;;1.77;1.65;;;15.50;99.90;;;;;;5050864;28;20053;-78
2022/06/06 04:19:24;;;;;;;2.35;1.20;;;15.50;99.90;;;;;;5051351;28;20036;-79
2022/06/06 04:22:18;;;;;;;1.63;1.50;;;15.60;99.90;;;;;;5024874;28;20128;-79
2022/06/06 04:25:10;;;;;;;1.15;1.10;;;15.70;99.90;;;;;;5046912;28;20052;-81
2022/06/06 04:28:04;;;;;;;1.10;1.10;;;15.90;99.90;;;;;;5042494;28;20014;-80
2022/06/06 04:31:05;;;;;;;1.58;1.48;;;16.00;99.90;;;;;;5055361;28;20040;-79
2022/06/06 04:33:56;;;;;;;1.30;1.20;;;15.90;99.90;;;;;;5070277;28;20021;-80
2022/06/06 04:36:50;;;;;;;1.20;1.20;;;15.80;99.90;;;;;;5075764;28;20033;-80
2022/06/06 04:39:20;;;;;;;1.40;1.25;;;15.70;99.90;;;;;;5076003;28;20029;-80
2022/06/06 04:42:04;;;;;;;1.40;1.30;;;15.60;99.90;;;;;;5075717;28;20025;-80
2022/06/06 04:45:02;;;;;;;1.52;1.27;;;15.60;99.90;;;;;;5069746;28;20119;-81
2022/06/06 04:47:37;;;;;;;1.45;1.30;;;15.50;99.90;;;;;;5034390;28;20028;-81
2022/06/06 04:50:08;;;;;;;1.92;1.40;;;15.60;99.90;;;;;;5029936;28;20137;-80
2022/06/06 04:52:36;;;;;;;3.20;1.83;;;15.70;99.90;;;;;;5043886;28;20029;-82
2022/06/06 04:55:04;;;;;;;1.48;1.38;;;15.70;99.90;;;;;;5026197;28;20093;-80
2022/06/06 04:57:31;;;;;;;2.40;1.80;;;15.90;99.90;;;;;;5041918;28;20061;-78
2022/06/06 04:59:59;;;;;;;2.78;1.60;;;16.10;99.90;;;;;;5030007;28;20120;-79
2022/06/06 05:02:26;;;;;;;1.70;1.60;;;16.40;99.90;;;;;;5062509;28;20036;-78
2022/06/06 05:04:51;;;;;;;2.05;1.13;;;16.80;99.90;;;;;;5044013;28;20021;-79
2022/06/06 05:07:20;;;;;;;1.35;1.25;;;17.80;99.90;;;;;;5024104;28;20051;-80
2022/06/06 05:10:13;;;;;;;1.15;1.15;;;20.50;99.90;;;;;;5041163;28;20031;-79
2022/06/06 05:12:42;;;;;;;1.10;1.10;;;21.50;94.20;;;;;;5042331;28;20034;-80
2022/06/06 05:15:16;;;;;;;1.58;1.02;;;21.50;93.50;;;;;;5042424;28;20033;-79
2022/06/06 05:17:55;;;;;;;1.90;1.10;;;22.20;90.70;;;;;;5043148;28;20048;-81
2022/06/06 05:20:39;;;;;;;1.25;1.15;;;21.30;90.00;;;;;;5044296;28;20021;-81
2022/06/06 05:23:43;;;;;;;1.20;1.10;;;20.30;91.60;;;;;;5026113;28;20030;-79
2022/06/06 05:26:35;;;;;;;2.03;1.10;;;19.60;96.70;;;;;;5034532;28;20022;-79
2022/06/06 05:29:19;;;;;;;1.40;1.30;;;19.10;94.20;;;;;;5038954;28;20033;-78
2022/06/06 05:32:08;;;;;;;1.20;1.13;;;18.80;95.20;;;;;;5057024;28;20308;-78
2022/06/06 05:34:41;;;;;;;1.20;1.15;;;18.90;96.00;;;;;;5049386;28;20049;-79
2022/06/06 05:37:24;;;;;;;1.92;1.27;;;19.50;95.00;;;;;;5043790;28;20426;-80
2022/06/06 05:40:16;;;;;;;1.10;1.10;;;19.60;93.90;;;;;;5025199;28;20029;-79
2022/06/06 05:43:13;;;;;;;1.00;1.00;;;19.40;93.90;;;;;;5043399;28;20096;-79
2022/06/06 05:46:14;;;;;;;1.52;1.17;;;19.20;94.00;;;;;;5044062;28;20057;-79
2022/06/06 05:49:03;;;;;;;1.08;0.98;;;19.20;94.70;;;;;;5031248;28;20024;-78
2022/06/06 05:52:02;;;;;;;1.02;0.90;;;19.20;94.50;;;;;;5053333;28;20100;-80
2022/06/06 05:54:40;;;;;;;1.27;0.98;;;21.10;94.50;;;;;;5041541;28;20070;-80
2022/06/06 05:57:36;;;;;;;0.90;0.90;;;26.10;84.40;;;;;;5022191;28;20028;-80
2022/06/06 06:00:09;;;;;;;0.90;0.90;;;29.40;65.20;;;;;;5030004;28;20032;-80
2022/06/06 06:02:57;;;;;;;0.93;0.93;;;29.70;60.20;;;;;;5051690;28;20545;-80
2022/06/06 06:05:34;;;;;;;1.23;1.08;;;31.20;56.60;;;;;;5060995;28;20024;-80
2022/06/06 06:08:15;;;;;;;1.23;0.95;;;31.70;54.00;;;;;;5061272;28;20024;-80
2022/06/06 06:10:57;;;;;;;0.73;0.73;;;33.00;51.60;;;;;;5060378;28;20056;-79
2022/06/06 06:13:42;;;;;;;0.90;0.90;;;34.10;49.40;;;;;;5059974;28;20025;-80
2022/06/06 06:16:11;;;;;;;0.98;0.90;;;34.80;48.10;;;;;;5043944;28;20036;-79
2022/06/06 06:18:46;;;;;;;0.80;0.80;;;35.30;46.60;;;;;;5038481;28;20474;-79
2022/06/06 06:21:24;;;;;;;1.00;1.00;;;35.80;44.80;;;;;;5060390;28;20025;-79
2022/06/06 06:24:01;;;;;;;1.08;1.00;;;35.40;45.20;;;;;;5042327;28;20047;-80
2022/06/06 06:26:30;;;;;;;0.90;0.90;;;33.90;45.20;;;;;;5026516;28;20055;-79
2022/06/06 06:29:01;;;;;;;1.08;1.08;;;31.10;46.80;;;;;;5045556;28;20052;-79
2022/06/06 06:31:35;;;;;;;0.80;0.80;;;28.40;51.80;;;;;;5049785;28;20080;-80
2022/06/06 06:34:04;;;;;;;0.82;0.82;;;27.70;56.70;;;;;;5055890;28;20029;-79
2022/06/06 06:36:53;;;;;;;1.00;1.00;;;28.00;56.60;;;;;;5040203;28;20036;-78
2022/06/06 06:39:46;;;;;;;2.05;1.25;;;28.50;55.70;;;;;;5041877;28;20045;-79
2022/06/06 06:42:15;;;;;;;2.15;1.95;;;27.70;53.80;;;;;;5045597;28;20034;-78
2022/06/06 06:44:47;;;;;;;1.63;1.30;;;26.20;55.80;;;;;;5052947;28;20040;-78
2022/06/06 06:47:31;;;;;;;1.48;1.38;;;24.90;59.10;;;;;;5053152;28;20017;-77
2022/06/06 06:50:06;;;;;;;2.88;1.63;;;25.00;63.00;;;;;;5037491;28;20022;-78
2022/06/06 06:52:35;;;;;;;1.50;1.40;;;25.60;59.20;;;;;;5031614;28;20057;-78
2022/06/06 06:55:19;;;;;;;1.40;1.30;;;25.10;59.80;;;;;;5041550;28;20410;-78
2022/06/06 06:57:58;;;;;;;1.40;1.30;;;24.60;60.80;;;;;;5028150;28;20030;-77
2022/06/06 07:00:24;;;;;;;1.20;1.17;;;24.00;63.20;;;;;;5042429;28;20033;-78
2022/06/06 07:09:27;;;;;;;1.13;1.13;;;24.20;63.40;;;;;;5044387;28;20044;-80
2022/06/06 07:12:18;;;;;;;1.73;1.10;;;25.30;61.50;;;;;;5020002;28;20074;-80
2022/06/06 07:14:59;;;;;;;1.65;1.05;;;26.60;59.00;;;;;;5037093;28;20037;-77
2022/06/06 07:17:28;;;;;;;1.70;1.50;;;27.50;56.00;;;;;;5017566;28;20061;-78
2022/06/06 07:19:59;;;;;;;2.22;1.45;;;27.20;55.70;;;;;;5045810;28;20063;-79
2022/06/06 07:22:59;;;;;;;2.30;1.55;;;26.60;55.90;;;;;;5041179;28;20118;-80
2022/06/06 07:25:15;;;;;;;1.40;1.30;;;25.30;57.30;;;;;;5038588;28;20112;-79
2022/06/06 07:27:41;;;;;;;2.08;1.60;;;24.20;60.30;;;;;;5020478;28;20021;-80
2022/06/06 07:30:07;;;;;;;1.55;1.45;;;23.60;62.40;;;;;;5059664;22;20064;-83
2022/06/06 07:32:46;;;;;;;1.50;1.40;;;23.40;64.20;;;;;;5051905;28;20025;-83
2022/06/06 07:35:27;;;;;;;1.60;1.50;;;23.50;64.40;;;;;;5064168;28;20085;-83
2022/06/06 07:38:16;;;;;;;1.10;1.10;;;23.70;64.50;;;;;;5060193;28;20086;-83
2022/06/06 07:41:19;;;;;;;1.50;1.50;;;23.90;64.50;;;;;;5041035;28;20040;-83
2022/06/06 07:43:58;;;;;;;1.33;1.30;;;24.40;63.90;;;;;;5038984;28;20117;-83
2022/06/06 07:46:55;;;;;;;1.20;1.10;;;24.80;63.20;;;;;;5043834;28;20493;-83
2022/06/06 07:49:25;;;;;;;1.98;1.85;;;24.90;62.30;;;;;;5023078;28;20116;-83
2022/06/06 07:52:11;;;;;;;2.50;1.58;;;24.60;61.10;;;;;;5022546;28;20064;-83
2022/06/06 07:55:08;;;;;;;1.00;1.00;;;24.20;62.90;;;;;;5021671;28;20044;-83
2022/06/06 07:57:49;;;;;;;1.73;1.60;;;24.00;64.60;;;;;;5021931;28;20080;-84
2022/06/06 08:00:20;;;;;;;2.85;1.52;;;23.90;64.20;;;;;;5038558;28;20063;-84
2022/06/06 08:03:14;;;;;;;1.63;1.52;;;23.90;64.60;;;;;;5043700;28;20031;-84
2022/06/06 08:06:02;;;;;;;1.50;1.40;;;24.00;64.90;;;;;;5058812;28;20033;-83
2022/06/06 08:08:55;;;;;;;1.40;1.30;;;24.20;64.20;;;;;;5053816;28;20045;-83
2022/06/06 08:11:40;;;;;;;1.52;1.42;;;24.40;63.70;;;;;;5047058;28;20037;-83
2022/06/06 08:14:08;;;;;;;1.42;1.15;;;24.60;63.80;;;;;;5028189;28;20025;-83
2022/06/06 08:16:46;;;;;;;1.20;1.20;;;24.90;62.80;;;;;;5046283;28;20436;-82
2022/06/06 08:19:35;;;;;;;0.90;0.90;;;24.80;62.00;;;;;;5044526;28;20383;-83
2022/06/06 08:22:02;;;;;;;1.58;1.45;;;24.30;62.90;;;;;;5045667;28;20117;-83
2022/06/06 08:24:38;;;;;;;2.10;1.60;;;23.90;63.40;;;;;;5026754;28;20026;-83
2022/06/06 08:27:06;;;;;;;1.30;1.23;;;23.60;64.40;;;;;;5027292;28;20391;-83
2022/06/06 08:29:37;;;;;;;1.58;1.50;;;23.80;65.50;;;;;;5046014;28;20048;-83
2022/06/06 08:32:05;;;;;;;2.80;2.00;;;23.90;65.50;;;;;;5058310;28;20021;-83
2022/06/06 08:34:32;;;;;;;2.13;1.70;;;24.20;63.80;;;;;;5064871;28;20468;-83
2022/06/06 08:37:13;;;;;;;2.30;1.60;;;24.40;63.30;;;;;;5066416;28;20025;-84
2022/06/06 08:39:54;;;;;;;1.75;1.60;;;24.70;62.60;;;;;;5059036;28;20013;-83
2022/06/06 08:42:53;;;;;;;2.40;1.67;;;24.70;62.10;;;;;;5056498;28;20029;-83
2022/06/06 08:45:44;;;;;;;1.95;1.77;;;24.40;62.00;;;;;;5025989;28;20025;-83
2022/06/06 08:48:53;;;;;;;1.80;1.70;;;24.20;63.80;;;;;;5043502;28;20092;-83
2022/06/06 08:51:40;;;;;;;4.10;1.45;;;24.20;63.70;;;;;;5028589;28;20033;-83
2022/06/06 08:54:11;;;;;;;2.00;1.60;;;24.10;64.00;;;;;;5028139;28;20051;-83
2022/06/06 08:57:12;;;;;;;1.17;1.15;;;24.30;64.30;;;;;;5029707;28;20022;-85
2022/06/06 09:00:25;;;;;;;1.55;1.45;;;24.60;63.30;;;;;;5000305;28;20044;-82
2022/06/06 09:03:20;;;;;;;2.88;1.40;;;25.00;62.50;;;;;;4976393;28;20039;-83
2022/06/06 09:06:11;;;;;;;1.63;1.35;;;25.10;61.30;;;;;;5020339;28;20029;-85
2022/06/06 09:09:10;;;;;;;2.88;1.38;;;25.10;61.40;;;;;;5013745;28;20065;-84
2022/06/06 09:11:57;;;;;;;1.70;1.60;;;25.10;61.00;;;;;;5046471;28;20120;-84
2022/06/06 09:14:55;;;;;;;1.80;1.63;;;25.10;61.60;;;;;;5028704;28;20104;-84
2022/06/06 09:17:42;;;;;;;3.85;1.33;;;25.50;59.80;;;;;;5029014;28;20021;-84
2022/06/06 09:20:47;;;;;;;1.48;1.38;;;25.50;59.80;;;;;;5024016;28;20026;-84
2022/06/06 09:23:50;;;;;;;2.03;1.40;;;25.60;60.20;;;;;;5041699;28;20037;-83
2022/06/06 09:26:23;;;;;;;1.63;1.52;;;25.30;60.40;;;;;;5025128;28;20025;-84
2022/06/06 09:29:01;;;;;;;4.13;1.95;;;25.00;59.50;;;;;;5024747;28;20421;-84
2022/06/06 09:31:51;;;;;;;3.72;1.73;;;24.80;60.50;;;;;;5036724;28;20044;-84
2022/06/06 09:34:22;;;;;;;5.10;2.25;;;24.70;60.50;;;;;;5055913;28;20032;-84
2022/06/06 09:37:06;;;;;;;2.65;1.90;;;24.70;60.60;;;;;;5062149;28;20032;-83
2022/06/06 09:40:02;;;;;;;2.92;1.92;;;24.50;61.00;;;;;;5043763;28;20781;-85
2022/06/06 09:42:40;;;;;;;2.05;1.90;;;24.40;60.50;;;;;;5045568;28;20061;-85
2022/06/06 09:45:22;;;;;;;2.05;1.50;;;24.20;60.90;;;;;;5029346;28;20029;-84
2022/06/06 09:48:10;;;;;;;1.80;1.70;;;23.90;60.80;;;;;;5039910;28;20030;-84
2022/06/06 09:51:15;;;;;;;2.10;1.90;;;23.60;62.80;;;;;;5039212;28;20029;-84
2022/06/06 10:00:07;;;;;;;1.83;1.70;;;25.60;59.20;;;;;;5038280;28;20501;-84
2022/06/06 10:03:04;;;;;;;2.03;1.55;;;26.20;58.40;;;;;;5043900;28;20025;-85
2022/06/06 10:06:07;;;;;;;1.90;1.65;;;26.70;56.10;;;;;;5044925;28;20443;-85
2022/06/06 10:12:20;;;;;;;1.75;1.65;;;27.20;55.50;;;;;;5036989;28;20022;-83
2022/06/06 10:15:07;;;;;;;1.40;1.35;;;27.20;55.00;;;;;;5049216;28;20018;-84
2022/06/06 10:17:33;;;;;;;3.65;3.00;;;27.10;54.60;;;;;;5055192;28;20104;-84
2022/06/06 10:20:17;;;;;;;3.70;1.80;;;26.70;55.10;;;;;;5049348;28;20113;-84
2022/06/06 10:22:50;;;;;;;2.95;2.00;;;26.30;55.30;;;;;;5030476;28;20055;-83
2022/06/06 10:25:38;;;;;;;2.67;1.50;;;25.90;56.70;;;;;;5033616;28;20044;-84
2022/06/06 10:32:18;;;;;;;1.75;1.58;;;26.20;55.90;;;;;;5032401;28;20072;-83
2022/06/06 10:34:46;;;;;;;1.60;1.50;;;25.80;55.90;;;;;;5047532;28;20021;-82
2022/06/06 10:37:21;;;;;;;1.52;1.42;;;25.30;57.30;;;;;;5064645;28;20093;-83
2022/06/06 10:39:55;;;;;;;2.83;1.88;;;25.00;58.00;;;;;;5067490;28;20123;-83
2022/06/06 10:42:46;;;;;;;1.80;1.40;;;25.10;58.50;;;;;;5057846;28;20025;-82
2022/06/06 10:45:30;;;;;;;1.48;1.38;;;25.00;60.00;;;;;;5052390;28;20037;-83
2022/06/06 10:48:15;;;;;;;2.55;1.70;;;25.10;60.10;;;;;;5031411;28;20021;-85
2022/06/06 10:54:34;;;;;;;1.58;1.48;;;26.10;57.50;;;;;;5048727;28;20037;-83
2022/06/06 10:57:05;;;;;;;2.13;1.48;;;26.40;55.60;;;;;;4967460;28;20027;-84
2022/06/06 10:59:58;;;;;;;2.80;1.90;;;26.50;56.40;;;;;;4949420;29;20076;-83
2022/06/06 11:02:42;;;;;;;3.47;2.17;;;26.20;55.30;;;;;;5029422;28;20096;-84
2022/06/06 11:05:19;;;;;;;3.53;1.90;;;25.90;56.60;;;;;;5046009;28;20079;-82
2022/06/06 11:07:59;;;;;;;3.35;2.03;;;25.50;57.50;;;;;;5046278;28;20021;-83
2022/06/06 11:10:25;;;;;;;1.80;1.65;;;25.80;57.30;;;;;;5038318;28;20067;-83
2022/06/06 11:13:10;;;;;;;;;;;;;;;;;;;;;
2022/06/06 11:15:41;;;;;;;1.73;1.63;;;25.80;56.40;;;;;;5046116;28;20049;-82
2022/06/06 11:18:27;;;;;;;3.33;1.80;;;25.70;57.10;;;;;;5037631;28;20025;-83
2022/06/06 11:21:08;;;;;;;4.07;1.40;;;25.50;57.40;;;;;;5026667;28;20748;-83
2022/06/06 11:24:09;;;;;;;3.60;1.83;;;25.30;57.00;;;;;;5046322;28;20030;-83
2022/06/06 11:27:01;;;;;;;2.05;1.63;;;25.30;57.50;;;;;;5029196;28;20286;-83
2022/06/06 11:30:09;;;;;;;;;;;;;;;;;;;;;
2022/06/06 11:32:46;;;;;;;1.40;1.40;;;25.20;57.90;;;;;;5041727;28;20068;-84
2022/06/06 11:35:30;;;;;;;2.85;1.60;;;25.40;57.40;;;;;;5026737;28;20444;-84
2022/06/06 11:38:07;;;;;;;1.60;1.30;;;25.70;56.70;;;;;;5035466;28;20089;-84
2022/06/06 11:41:27;;;;;;;1.60;1.50;;;25.60;56.20;;;;;;5037720;28;20025;-83
2022/06/06 11:44:18;;;;;;;1.98;1.73;;;25.40;56.80;;;;;;4950716;29;20118;-84
2022/06/06 11:47:12;;;;;;;1.80;1.70;;;25.40;58.40;;;;;;5049706;28;20037;-84
2022/06/06 11:50:29;;;;;;;2.10;1.92;;;25.10;58.30;;;;;;5053640;28;20031;-84
2022/06/06 11:53:52;;;;;;;3.17;1.80;;;24.50;60.10;;;;;;4993398;28;20037;-83
2022/06/06 11:57:13;;;;;;;2.72;1.73;;;24.10;61.80;;;;;;5003268;28;20037;-83
2022/06/06 11:59:51;;;;;;;3.78;2.17;;;23.70;63.60;;;;;;5038669;28;20029;-83
2022/06/06 12:02:35;;;;;;;2.15;1.95;;;23.40;65.50;;;;;;5053242;28;20017;-83
2022/06/06 12:05:20;;;;;;;3.97;2.20;;;23.20;68.20;;;;;;5049022;28;20112;-83
2022/06/06 12:08:10;;;;;;;1.88;1.67;;;22.90;69.30;;;;;;5032884;28;20366;-82
2022/06/06 12:11:12;;;;;;;3.72;1.52;;;23.00;70.40;;;;;;5032973;28;20009;-83
2022/06/06 12:14:21;;;;;;;1.92;1.63;;;24.00;67.90;;;;;;5049307;28;20119;-83
2022/06/06 12:17:09;;;;;;;4.68;2.22;;;24.80;63.70;;;;;;5031990;28;20038;-83
2022/06/06 12:19:40;;;;;;;2.55;2.33;;;25.10;61.10;;;;;;5032396;28;20022;-82
2022/06/06 12:22:33;;;;;;;2.22;1.70;;;25.30;61.70;;;;;;5030738;28;20503;-82
2022/06/06 12:25:11;;;;;;;2.50;1.70;;;25.30;59.80;;;;;;5029438;28;20044;-83
2022/06/06 12:28:03;;;;;;;2.35;1.40;;;25.20;60.20;;;;;;5047063;28;20029;-83
2022/06/06 12:30:53;;;;;;;1.70;1.60;;;25.30;60.30;;;;;;5048707;28;20078;-83
2022/06/06 12:33:26;;;;;;;3.22;1.77;;;25.70;60.40;;;;;;5050016;28;20042;-84
2022/06/06 12:36:24;;;;;;;1.65;1.55;;;26.00;58.50;;;;;;5046898;28;20025;-83
2022/06/06 12:39:05;;;;;;;1.67;1.48;;;26.00;57.50;;;;;;5035062;28;20236;-82
2022/06/06 12:41:49;;;;;;;1.85;1.33;;;26.10;57.00;;;;;;5031515;28;20116;-82
2022/06/06 12:44:34;;;;;;;1.60;1.40;;;26.00;56.60;;;;;;5048639;28;20018;-81
2022/06/06 12:47:50;;;;;;;2.50;1.48;;;26.00;56.10;;;;;;5053990;28;20022;-81
2022/06/06 12:50:37;;;;;;;1.60;1.50;;;26.30;55.50;;;;;;4987227;28;20390;-82
2022/06/06 12:53:19;;;;;;;1.45;1.35;;;26.50;55.50;;;;;;5030443;28;20033;-83
2022/06/06 12:56:24;;;;;;;3.30;1.50;;;26.50;55.70;;;;;;5030573;28;20018;-82
2022/06/06 12:59:18;;;;;;;2.42;1.45;;;26.50;55.50;;;;;;5012939;28;20022;-82
2022/06/06 13:01:58;;;;;;;1.98;1.67;;;26.40;55.10;;;;;;5059441;28;20028;-82
2022/06/06 13:04:49;;;;;;;1.35;1.25;;;26.20;54.90;;;;;;5051774;28;20037;-81
2022/06/06 13:07:29;;;;;;;1.48;1.38;;;26.00;55.60;;;;;;5034937;28;20032;-83
2022/06/06 13:10:04;;;;;;;4.00;1.85;;;26.00;55.50;;;;;;5035424;28;20022;-82
2022/06/06 13:12:40;;;;;;;1.63;1.35;;;26.00;55.80;;;;;;5052039;28;20048;-81
2022/06/06 13:15:34;;;;;;;1.45;1.35;;;26.30;55.60;;;;;;5034315;28;20097;-82
2022/06/06 13:18:38;;;;;;;2.50;1.67;;;26.20;55.40;;;;;;5035042;28;20382;-83
2022/06/06 13:21:20;;;;;;;1.30;1.20;;;26.50;56.20;;;;;;5033258;28;20056;-83
2022/06/06 13:23:51;;;;;;;2.67;1.48;;;27.30;54.00;;;;;;5048556;28;20029;-82
2022/06/06 13:26:35;;;;;;;;;;;27.80;52.80;;;;;;5049973;28;20038;-83
2022/06/06 13:29:03;;;;;;;1.20;1.10;;;28.20;51.90;;;;;;5048601;28;19905;-84
2022/06/06 13:31:41;;;;;;;2.42;1.95;;;28.70;51.80;;;;;;5073776;22;20037;-78
2022/06/06 13:34:25;;;;;;;1.25;1.20;;;28.80;50.90;;;;;;5055895;28;20032;-79
2022/06/06 13:36:53;;;;;;;1.45;1.35;;;28.40;50.20;;;;;;5041225;28;20025;-79
2022/06/06 13:39:43;;;;;;;1.40;1.33;;;27.40;52.10;;;;;;5040352;28;20029;-79
2022/06/06 13:42:36;;;;;;;1.48;1.38;;;27.00;54.00;;;;;;5043233;28;20009;-79
2022/06/06 13:45:29;;;;;;;1.50;1.40;;;27.30;54.40;;;;;;5042382;28;20431;-79
2022/06/06 13:48:21;;;;;;;1.45;1.27;;;27.30;53.30;;;;;;5061981;28;20028;-78
2022/06/06 13:51:23;;;;;;;3.00;1.65;;;27.10;54.10;;;;;;5060764;28;20381;-79
2022/06/06 13:54:05;;;;;;;2.55;1.50;;;26.90;53.90;;;;;;5059486;28;20033;-78
2022/06/06 13:56:59;;;;;;;1.23;1.20;;;26.70;53.80;;;;;;5059323;28;20040;-80
2022/06/06 13:59:43;;;;;;;1.40;1.30;;;26.90;54.10;;;;;;5057321;28;20036;-79
2022/06/06 14:02:34;;;;;;;1.77;1.67;;;27.50;52.00;;;;;;5076571;28;20020;-80
2022/06/06 14:05:28;;;;;;;1.52;1.30;;;27.90;52.60;;;;;;5072012;28;20441;-79
2022/06/06 14:08:10;;;;;;;1.88;1.45;;;28.40;52.00;;;;;;5058123;28;20013;-80
2022/06/06 14:10:59;;;;;;;1.67;1.58;;;28.60;50.70;;;;;;5023117;28;20033;-78
2022/06/06 14:13:45;;;;;;;2.28;1.50;;;27.90;50.00;;;;;;5031488;28;20065;-78
2022/06/06 14:16:16;;;;;;;2.30;1.50;;;27.40;52.40;;;;;;5058286;28;20021;-78
2022/06/06 14:18:42;;;;;;;4.90;1.67;;;27.10;53.00;;;;;;5061658;28;20114;-79
2022/06/06 14:21:07;;;;;;;1.80;1.35;;;27.30;52.70;;;;;;5046192;28;20498;-78
2022/06/06 14:23:37;;;;;;;2.60;1.60;;;27.20;52.60;;;;;;5065852;28;20541;-78
2022/06/06 14:26:08;;;;;;;2.30;1.52;;;27.30;53.30;;;;;;5064625;28;20029;-77
2022/06/06 14:28:39;;;;;;;2.63;1.20;;;27.90;51.60;;;;;;5066909;28;20084;-78